sensor_id;sensor_type;location;lat;lon;timestamp;pressure;altitude;pressure_sealevel;temperature
10058;BMP180;5068;51.286;7.518;2023-12-29T00:00:26;98747.00;;;12.60
10058;BMP180;5068;51.286;7.518;2023-12-29T00:02:02;98741.00;;;12.70
10058;BMP180;5068;51.286;7.518;2023-12-29T00:03:36;98734.00;;;12.70
10058;BMP180;5068;51.286;7.518;2023-12-29T00:05:10;98739.00;;;12.70
10058;BMP180;5068;51.286;7.518;2023-12-29T00:06:43;98732.00;;;12.70
10058;BMP180;5068;51.286;7.518;2023-12-29T00:08:31;98727.00;;;12.70
10058;BMP180;5068;51.286;7.518;2023-12-29T00:10:06;98724.00;;;12.70
10058;BMP180;5068;51.286;7.518;2023-12-29T00:11:38;98727.00;;;12.70
10058;BMP180;5068;51.286;7.518;2023-12-29T00:13:12;98727.00;;;12.70
10058;BMP180;5068;51.286;7.518;2023-12-29T00:14:45;98726.00;;;12.70
10058;BMP180;5068;51.286;7.518;2023-12-29T00:16:18;98728.00;;;12.70
10058;BMP180;5068;51.286;7.518;2023-12-29T00:17:51;98719.00;;;12.70
10058;BMP180;5068;51.286;7.518;2023-12-29T00:19:25;98717.00;;;12.70
10058;BMP180;5068;51.286;7.518;2023-12-29T00:20:59;98708.00;;;12.70
10058;BMP180;5068;51.286;7.518;2023-12-29T00:22:38;98707.00;;;12.70
10058;BMP180;5068;51.286;7.518;2023-12-29T00:24:11;98712.00;;;12.70
10058;BMP180;5068;51.286;7.518;2023-12-29T00:25:44;98698.00;;;12.70
10058;BMP180;5068;51.286;7.518;2023-12-29T00:27:16;98720.00;;;12.70
10058;BMP180;5068;51.286;7.518;2023-12-29T00:28:50;98709.00;;;12.70
10058;BMP180;5068;51.286;7.518;2023-12-29T00:30:22;98707.00;;;12.70
10058;BMP180;5068;51.286;7.518;2023-12-29T00:32:10;98708.00;;;12.70
10058;BMP180;5068;51.286;7.518;2023-12-29T00:33:42;98709.00;;;12.80
10058;BMP180;5068;51.286;7.518;2023-12-29T00:35:16;98711.00;;;12.80
10058;BMP180;5068;51.286;7.518;2023-12-29T00:36:50;98714.00;;;12.80
10058;BMP180;5068;51.286;7.518;2023-12-29T00:38:26;98699.00;;;12.80
10058;BMP180;5068;51.286;7.518;2023-12-29T00:40:00;98700.00;;;12.80
10058;BMP180;5068;51.286;7.518;2023-12-29T00:41:33;98708.00;;;12.80
10058;BMP180;5068;51.286;7.518;2023-12-29T00:43:06;98717.00;;;12.80
10058;BMP180;5068;51.286;7.518;2023-12-29T00:44:40;98707.00;;;12.80
10058;BMP180;5068;51.286;7.518;2023-12-29T00:46:14;98725.00;;;12.80
10058;BMP180;5068;51.286;7.518;2023-12-29T00:47:49;98714.00;;;12.80
10058;BMP180;5068;51.286;7.518;2023-12-29T00:49:23;98715.00;;;12.80
10058;BMP180;5068;51.286;7.518;2023-12-29T00:50:55;98717.00;;;12.80
10058;BMP180;5068;51.286;7.518;2023-12-29T00:52:30;98711.00;;;12.80
10058;BMP180;5068;51.286;7.518;2023-12-29T00:54:03;98713.00;;;12.80
10058;BMP180;5068;51.286;7.518;2023-12-29T00:55:36;98714.00;;;12.80
10058;BMP180;5068;51.286;7.518;2023-12-29T00:57:09;98710.00;;;12.80
10058;BMP180;5068;51.286;7.518;2023-12-29T00:58:41;98712.00;;;12.80
10058;BMP180;5068;51.286;7.518;2023-12-29T01:00:15;98713.00;;;12.90
10058;BMP180;5068;51.286;7.518;2023-12-29T01:01:48;98695.00;;;12.90
10058;BMP180;5068;51.286;7.518;2023-12-29T01:03:21;98682.00;;;12.90
10058;BMP180;5068;51.286;7.518;2023-12-29T01:04:57;98693.00;;;12.90
10058;BMP180;5068;51.286;7.518;2023-12-29T01:06:30;98684.00;;;12.90
10058;BMP180;5068;51.286;7.518;2023-12-29T01:08:05;98684.00;;;12.90
10058;BMP180;5068;51.286;7.518;2023-12-29T01:09:40;98695.00;;;12.90
10058;BMP180;5068;51.286;7.518;2023-12-29T01:11:13;98686.00;;;12.90
10058;BMP180;5068;51.286;7.518;2023-12-29T01:12:46;98694.00;;;12.90
10058;BMP180;5068;51.286;7.518;2023-12-29T01:14:19;98684.00;;;12.90
10058;BMP180;5068;51.286;7.518;2023-12-29T01:15:52;98682.00;;;12.90
10058;BMP180;5068;51.286;7.518;2023-12-29T01:17:25;98685.00;;;13.00
10058;BMP180;5068;51.286;7.518;2023-12-29T01:18:59;98674.00;;;13.00
10058;BMP180;5068;51.286;7.518;2023-12-29T01:20:32;98689.00;;;12.90
10058;BMP180;5068;51.286;7.518;2023-12-29T01:22:05;98685.00;;;12.90
10058;BMP180;5068;51.286;7.518;2023-12-29T01:23:39;98684.00;;;12.90
10058;BMP180;5068;51.286;7.518;2023-12-29T01:25:13;98685.00;;;13.00
10058;BMP180;5068;51.286;7.518;2023-12-29T01:26:45;98681.00;;;13.00
10058;BMP180;5068;51.286;7.518;2023-12-29T01:28:19;98675.00;;;13.00
10058;BMP180;5068;51.286;7.518;2023-12-29T01:29:51;98671.00;;;13.00
10058;BMP180;5068;51.286;7.518;2023-12-29T01:31:29;98668.00;;;13.00
10058;BMP180;5068;51.286;7.518;2023-12-29T01:33:01;98689.00;;;13.00
10058;BMP180;5068;51.286;7.518;2023-12-29T01:34:35;98675.00;;;13.00
10058;BMP180;5068;51.286;7.518;2023-12-29T01:36:08;98677.00;;;13.00
10058;BMP180;5068;51.286;7.518;2023-12-29T01:37:49;98675.00;;;13.00
10058;BMP180;5068;51.286;7.518;2023-12-29T01:39:22;98669.00;;;13.00
10058;BMP180;5068;51.286;7.518;2023-12-29T01:40:56;98668.00;;;13.00
10058;BMP180;5068;51.286;7.518;2023-12-29T01:42:28;98670.00;;;13.00
10058;BMP180;5068;51.286;7.518;2023-12-29T01:44:21;98665.00;;;13.00
10058;BMP180;5068;51.286;7.518;2023-12-29T01:45:53;98662.00;;;13.00
10058;BMP180;5068;51.286;7.518;2023-12-29T01:47:30;98645.00;;;13.00
10058;BMP180;5068;51.286;7.518;2023-12-29T01:49:03;98656.00;;;13.10
10058;BMP180;5068;51.286;7.518;2023-12-29T01:50:38;98664.00;;;13.00
10058;BMP180;5068;51.286;7.518;2023-12-29T01:52:14;98660.00;;;13.00
10058;BMP180;5068;51.286;7.518;2023-12-29T01:53:50;98664.00;;;13.00
10058;BMP180;5068;51.286;7.518;2023-12-29T01:55:26;98653.00;;;13.10
10058;BMP180;5068;51.286;7.518;2023-12-29T01:57:00;98661.00;;;13.10
10058;BMP180;5068;51.286;7.518;2023-12-29T01:58:34;98660.00;;;13.10
10058;BMP180;5068;51.286;7.518;2023-12-29T02:00:08;98660.00;;;13.10
10058;BMP180;5068;51.286;7.518;2023-12-29T02:01:46;98655.00;;;13.10
10058;BMP180;5068;51.286;7.518;2023-12-29T02:03:19;98650.00;;;13.10
10058;BMP180;5068;51.286;7.518;2023-12-29T02:04:52;98657.00;;;13.00
10058;BMP180;5068;51.286;7.518;2023-12-29T02:06:25;98655.00;;;13.00
10058;BMP180;5068;51.286;7.518;2023-12-29T02:08:02;98650.00;;;13.00
10058;BMP180;5068;51.286;7.518;2023-12-29T02:09:41;98653.00;;;13.00
10058;BMP180;5068;51.286;7.518;2023-12-29T02:11:17;98654.00;;;13.00
10058;BMP180;5068;51.286;7.518;2023-12-29T02:12:51;98659.00;;;13.00
10058;BMP180;5068;51.286;7.518;2023-12-29T02:14:28;98656.00;;;13.00
10058;BMP180;5068;51.286;7.518;2023-12-29T02:16:09;98651.00;;;13.10
10058;BMP180;5068;51.286;7.518;2023-12-29T02:17:50;98638.00;;;13.10
10058;BMP180;5068;51.286;7.518;2023-12-29T02:19:37;98640.00;;;13.10
10058;BMP180;5068;51.286;7.518;2023-12-29T02:21:13;98647.00;;;13.10
10058;BMP180;5068;51.286;7.518;2023-12-29T02:22:45;98629.00;;;13.00
10058;BMP180;5068;51.286;7.518;2023-12-29T02:24:19;98627.00;;;13.10
10058;BMP180;5068;51.286;7.518;2023-12-29T02:25:55;98632.00;;;13.10
10058;BMP180;5068;51.286;7.518;2023-12-29T02:27:42;98625.00;;;13.10
10058;BMP180;5068;51.286;7.518;2023-12-29T02:29:20;98628.00;;;13.00
10058;BMP180;5068;51.286;7.518;2023-12-29T02:31:07;98620.00;;;13.10
10058;BMP180;5068;51.286;7.518;2023-12-29T02:32:44;98615.00;;;13.00
10058;BMP180;5068;51.286;7.518;2023-12-29T02:34:22;98620.00;;;13.00
10058;BMP180;5068;51.286;7.518;2023-12-29T02:35:59;98604.00;;;13.00
10058;BMP180;5068;51.286;7.518;2023-12-29T02:37:36;98608.00;;;13.10
10058;BMP180;5068;51.286;7.518;2023-12-29T02:39:10;98606.00;;;13.10
10058;BMP180;5068;51.286;7.518;2023-12-29T02:40:43;98604.00;;;13.00
10058;BMP180;5068;51.286;7.518;2023-12-29T02:42:18;98604.00;;;13.00
10058;BMP180;5068;51.286;7.518;2023-12-29T02:43:50;98600.00;;;13.00
10058;BMP180;5068;51.286;7.518;2023-12-29T02:45:24;98612.00;;;13.00
10058;BMP180;5068;51.286;7.518;2023-12-29T02:46:58;98628.00;;;13.00
10058;BMP180;5068;51.286;7.518;2023-12-29T02:48:32;98629.00;;;13.00
10058;BMP180;5068;51.286;7.518;2023-12-29T02:50:06;98624.00;;;12.90
10058;BMP180;5068;51.286;7.518;2023-12-29T02:51:39;98621.00;;;12.90
10058;BMP180;5068;51.286;7.518;2023-12-29T02:53:13;98639.00;;;12.90
10058;BMP180;5068;51.286;7.518;2023-12-29T02:54:45;98640.00;;;12.80
10058;BMP180;5068;51.286;7.518;2023-12-29T02:56:19;98644.00;;;12.80
10058;BMP180;5068;51.286;7.518;2023-12-29T02:57:53;98643.00;;;12.80
10058;BMP180;5068;51.286;7.518;2023-12-29T02:59:27;98640.00;;;12.70
10058;BMP180;5068;51.286;7.518;2023-12-29T03:00:59;98639.00;;;12.70
10058;BMP180;5068;51.286;7.518;2023-12-29T03:02:33;98643.00;;;12.70
10058;BMP180;5068;51.286;7.518;2023-12-29T03:04:05;98651.00;;;12.70
10058;BMP180;5068;51.286;7.518;2023-12-29T03:05:39;98651.00;;;12.60
10058;BMP180;5068;51.286;7.518;2023-12-29T03:07:11;98655.00;;;12.60
10058;BMP180;5068;51.286;7.518;2023-12-29T03:08:45;98651.00;;;12.50
10058;BMP180;5068;51.286;7.518;2023-12-29T03:10:17;98651.00;;;12.50
10058;BMP180;5068;51.286;7.518;2023-12-29T03:11:51;98653.00;;;12.50
10058;BMP180;5068;51.286;7.518;2023-12-29T03:13:24;98662.00;;;12.50
10058;BMP180;5068;51.286;7.518;2023-12-29T03:14:58;98653.00;;;12.50
10058;BMP180;5068;51.286;7.518;2023-12-29T03:16:31;98648.00;;;12.50
10058;BMP180;5068;51.286;7.518;2023-12-29T03:18:05;98651.00;;;12.40
10058;BMP180;5068;51.286;7.518;2023-12-29T03:19:39;98655.00;;;12.40
10058;BMP180;5068;51.286;7.518;2023-12-29T03:21:12;98654.00;;;12.40
10058;BMP180;5068;51.286;7.518;2023-12-29T03:22:45;98648.00;;;12.40
10058;BMP180;5068;51.286;7.518;2023-12-29T03:24:18;98653.00;;;12.40
10058;BMP180;5068;51.286;7.518;2023-12-29T03:25:53;98646.00;;;12.40
10058;BMP180;5068;51.286;7.518;2023-12-29T03:27:25;98634.00;;;12.40
10058;BMP180;5068;51.286;7.518;2023-12-29T03:29:01;98633.00;;;12.40
10058;BMP180;5068;51.286;7.518;2023-12-29T03:30:33;98630.00;;;12.40
10058;BMP180;5068;51.286;7.518;2023-12-29T03:32:07;98627.00;;;12.40
10058;BMP180;5068;51.286;7.518;2023-12-29T03:33:39;98619.00;;;12.40
10058;BMP180;5068;51.286;7.518;2023-12-29T03:35:13;98626.00;;;12.40
10058;BMP180;5068;51.286;7.518;2023-12-29T03:36:46;98614.00;;;12.40
10058;BMP180;5068;51.286;7.518;2023-12-29T03:38:20;98612.00;;;12.40
10058;BMP180;5068;51.286;7.518;2023-12-29T03:39:52;98613.00;;;12.40
10058;BMP180;5068;51.286;7.518;2023-12-29T03:41:25;98620.00;;;12.50
10058;BMP180;5068;51.286;7.518;2023-12-29T03:42:58;98613.00;;;12.50
10058;BMP180;5068;51.286;7.518;2023-12-29T03:44:35;98624.00;;;12.50
10058;BMP180;5068;51.286;7.518;2023-12-29T03:46:16;98619.00;;;12.40
10058;BMP180;5068;51.286;7.518;2023-12-29T03:47:49;98626.00;;;12.40
10058;BMP180;5068;51.286;7.518;2023-12-29T03:49:22;98623.00;;;12.40
10058;BMP180;5068;51.286;7.518;2023-12-29T03:50:55;98615.00;;;12.40
10058;BMP180;5068;51.286;7.518;2023-12-29T03:52:28;98625.00;;;12.40
10058;BMP180;5068;51.286;7.518;2023-12-29T03:54:01;98628.00;;;12.40
10058;BMP180;5068;51.286;7.518;2023-12-29T03:55:35;98626.00;;;12.40
10058;BMP180;5068;51.286;7.518;2023-12-29T03:57:09;98622.00;;;12.40
10058;BMP180;5068;51.286;7.518;2023-12-29T03:58:45;98620.00;;;12.40
10058;BMP180;5068;51.286;7.518;2023-12-29T04:00:20;98627.00;;;12.40
10058;BMP180;5068;51.286;7.518;2023-12-29T04:01:55;98625.00;;;12.40
10058;BMP180;5068;51.286;7.518;2023-12-29T04:03:28;98615.00;;;12.40
10058;BMP180;5068;51.286;7.518;2023-12-29T04:05:01;98617.00;;;12.40
10058;BMP180;5068;51.286;7.518;2023-12-29T04:06:35;98612.00;;;12.40
10058;BMP180;5068;51.286;7.518;2023-12-29T04:08:07;98605.00;;;12.40
10058;BMP180;5068;51.286;7.518;2023-12-29T04:09:40;98612.00;;;12.40
10058;BMP180;5068;51.286;7.518;2023-12-29T04:11:13;98607.00;;;12.40
10058;BMP180;5068;51.286;7.518;2023-12-29T04:12:47;98609.00;;;12.40
10058;BMP180;5068;51.286;7.518;2023-12-29T04:14:19;98603.00;;;12.40
10058;BMP180;5068;51.286;7.518;2023-12-29T04:15:54;98607.00;;;12.40
10058;BMP180;5068;51.286;7.518;2023-12-29T04:17:27;98591.00;;;12.40
10058;BMP180;5068;51.286;7.518;2023-12-29T04:19:00;98601.00;;;12.40
10058;BMP180;5068;51.286;7.518;2023-12-29T04:20:34;98598.00;;;12.40
10058;BMP180;5068;51.286;7.518;2023-12-29T04:22:06;98599.00;;;12.40
10058;BMP180;5068;51.286;7.518;2023-12-29T04:23:40;98590.00;;;12.40
10058;BMP180;5068;51.286;7.518;2023-12-29T04:25:13;98591.00;;;12.40
10058;BMP180;5068;51.286;7.518;2023-12-29T04:26:47;98599.00;;;12.40
10058;BMP180;5068;51.286;7.518;2023-12-29T04:28:19;98593.00;;;12.40
10058;BMP180;5068;51.286;7.518;2023-12-29T04:29:52;98593.00;;;12.40
10058;BMP180;5068;51.286;7.518;2023-12-29T04:31:26;98598.00;;;12.40
10058;BMP180;5068;51.286;7.518;2023-12-29T04:33:00;98598.00;;;12.50
10058;BMP180;5068;51.286;7.518;2023-12-29T04:34:32;98600.00;;;12.50
10058;BMP180;5068;51.286;7.518;2023-12-29T04:36:06;98592.00;;;12.50
10058;BMP180;5068;51.286;7.518;2023-12-29T04:37:40;98593.00;;;12.50
10058;BMP180;5068;51.286;7.518;2023-12-29T04:39:12;98595.00;;;12.50
10058;BMP180;5068;51.286;7.518;2023-12-29T04:40:46;98590.00;;;12.50
10058;BMP180;5068;51.286;7.518;2023-12-29T04:42:19;98602.00;;;12.50
10058;BMP180;5068;51.286;7.518;2023-12-29T04:43:52;98601.00;;;12.50
10058;BMP180;5068;51.286;7.518;2023-12-29T04:45:24;98592.00;;;12.50
10058;BMP180;5068;51.286;7.518;2023-12-29T04:46:59;98607.00;;;12.50
10058;BMP180;5068;51.286;7.518;2023-12-29T04:48:31;98602.00;;;12.50
10058;BMP180;5068;51.286;7.518;2023-12-29T04:50:06;98597.00;;;12.50
10058;BMP180;5068;51.286;7.518;2023-12-29T04:51:39;98605.00;;;12.50
10058;BMP180;5068;51.286;7.518;2023-12-29T04:53:12;98609.00;;;12.50
10058;BMP180;5068;51.286;7.518;2023-12-29T04:54:45;98600.00;;;12.50
10058;BMP180;5068;51.286;7.518;2023-12-29T04:56:20;98606.00;;;12.50
10058;BMP180;5068;51.286;7.518;2023-12-29T04:57:53;98605.00;;;12.50
10058;BMP180;5068;51.286;7.518;2023-12-29T04:59:26;98605.00;;;12.50
10058;BMP180;5068;51.286;7.518;2023-12-29T05:00:58;98615.00;;;12.50
10058;BMP180;5068;51.286;7.518;2023-12-29T05:02:34;98612.00;;;12.50
10058;BMP180;5068;51.286;7.518;2023-12-29T05:04:06;98608.00;;;12.50
10058;BMP180;5068;51.286;7.518;2023-12-29T05:05:40;98617.00;;;12.50
10058;BMP180;5068;51.286;7.518;2023-12-29T05:07:13;98626.00;;;12.50
10058;BMP180;5068;51.286;7.518;2023-12-29T05:08:46;98620.00;;;12.50
10058;BMP180;5068;51.286;7.518;2023-12-29T05:10:18;98618.00;;;12.50
10058;BMP180;5068;51.286;7.518;2023-12-29T05:11:52;98630.00;;;12.50
10058;BMP180;5068;51.286;7.518;2023-12-29T05:13:24;98618.00;;;12.50
10058;BMP180;5068;51.286;7.518;2023-12-29T05:14:57;98617.00;;;12.50
10058;BMP180;5068;51.286;7.518;2023-12-29T05:16:30;98621.00;;;12.50
10058;BMP180;5068;51.286;7.518;2023-12-29T05:18:05;98621.00;;;12.50
10058;BMP180;5068;51.286;7.518;2023-12-29T05:19:38;98616.00;;;12.50
10058;BMP180;5068;51.286;7.518;2023-12-29T05:21:15;98617.00;;;12.50
10058;BMP180;5068;51.286;7.518;2023-12-29T05:22:48;98626.00;;;12.50
10058;BMP180;5068;51.286;7.518;2023-12-29T05:24:22;98627.00;;;12.50
10058;BMP180;5068;51.286;7.518;2023-12-29T05:25:54;98625.00;;;12.50
10058;BMP180;5068;51.286;7.518;2023-12-29T05:27:27;98618.00;;;12.50
10058;BMP180;5068;51.286;7.518;2023-12-29T05:29:00;98617.00;;;12.50
10058;BMP180;5068;51.286;7.518;2023-12-29T05:30:33;98610.00;;;12.50
10058;BMP180;5068;51.286;7.518;2023-12-29T05:32:06;98612.00;;;12.60
10058;BMP180;5068;51.286;7.518;2023-12-29T05:33:41;98625.00;;;12.60
10058;BMP180;5068;51.286;7.518;2023-12-29T05:35:14;98623.00;;;12.60
10058;BMP180;5068;51.286;7.518;2023-12-29T05:36:48;98623.00;;;12.60
10058;BMP180;5068;51.286;7.518;2023-12-29T05:38:22;98610.00;;;12.60
10058;BMP180;5068;51.286;7.518;2023-12-29T05:39:55;98616.00;;;12.60
10058;BMP180;5068;51.286;7.518;2023-12-29T05:41:29;98613.00;;;12.60
10058;BMP180;5068;51.286;7.518;2023-12-29T05:43:01;98621.00;;;12.60
10058;BMP180;5068;51.286;7.518;2023-12-29T05:44:36;98614.00;;;12.60
10058;BMP180;5068;51.286;7.518;2023-12-29T05:46:09;98619.00;;;12.60
10058;BMP180;5068;51.286;7.518;2023-12-29T05:47:44;98621.00;;;12.60
10058;BMP180;5068;51.286;7.518;2023-12-29T05:49:18;98620.00;;;12.60
10058;BMP180;5068;51.286;7.518;2023-12-29T05:50:51;98627.00;;;12.60
10058;BMP180;5068;51.286;7.518;2023-12-29T05:52:25;98627.00;;;12.60
10058;BMP180;5068;51.286;7.518;2023-12-29T05:53:57;98626.00;;;12.60
10058;BMP180;5068;51.286;7.518;2023-12-29T05:55:30;98628.00;;;12.60
10058;BMP180;5068;51.286;7.518;2023-12-29T05:57:03;98619.00;;;12.60
10058;BMP180;5068;51.286;7.518;2023-12-29T05:58:36;98631.00;;;12.60
10058;BMP180;5068;51.286;7.518;2023-12-29T06:00:11;98621.00;;;12.60
10058;BMP180;5068;51.286;7.518;2023-12-29T06:01:46;98613.00;;;12.60
10058;BMP180;5068;51.286;7.518;2023-12-29T06:03:20;98612.00;;;12.60
10058;BMP180;5068;51.286;7.518;2023-12-29T06:04:53;98610.00;;;12.60
10058;BMP180;5068;51.286;7.518;2023-12-29T06:06:27;98605.00;;;12.60
10058;BMP180;5068;51.286;7.518;2023-12-29T06:07:59;98604.00;;;12.60
10058;BMP180;5068;51.286;7.518;2023-12-29T06:09:33;98617.00;;;12.60
10058;BMP180;5068;51.286;7.518;2023-12-29T06:11:05;98601.00;;;12.60
10058;BMP180;5068;51.286;7.518;2023-12-29T06:12:39;98616.00;;;12.60
10058;BMP180;5068;51.286;7.518;2023-12-29T06:14:11;98624.00;;;12.60
10058;BMP180;5068;51.286;7.518;2023-12-29T06:15:45;98628.00;;;12.60
10058;BMP180;5068;51.286;7.518;2023-12-29T06:17:17;98631.00;;;12.70
10058;BMP180;5068;51.286;7.518;2023-12-29T06:18:51;98635.00;;;12.70
10058;BMP180;5068;51.286;7.518;2023-12-29T06:20:25;98632.00;;;12.70
10058;BMP180;5068;51.286;7.518;2023-12-29T06:21:58;98643.00;;;12.70
10058;BMP180;5068;51.286;7.518;2023-12-29T06:23:31;98648.00;;;12.70
10058;BMP180;5068;51.286;7.518;2023-12-29T06:25:05;98645.00;;;12.70
10058;BMP180;5068;51.286;7.518;2023-12-29T06:26:37;98649.00;;;12.70
10058;BMP180;5068;51.286;7.518;2023-12-29T06:28:28;98655.00;;;12.70
10058;BMP180;5068;51.286;7.518;2023-12-29T06:30:01;98642.00;;;12.70
10058;BMP180;5068;51.286;7.518;2023-12-29T06:31:34;98649.00;;;12.70
10058;BMP180;5068;51.286;7.518;2023-12-29T06:33:07;98639.00;;;12.70
10058;BMP180;5068;51.286;7.518;2023-12-29T06:34:40;98644.00;;;12.70
10058;BMP180;5068;51.286;7.518;2023-12-29T06:36:14;98636.00;;;12.70
10058;BMP180;5068;51.286;7.518;2023-12-29T06:37:48;98628.00;;;12.70
10058;BMP180;5068;51.286;7.518;2023-12-29T06:39:20;98643.00;;;12.70
10058;BMP180;5068;51.286;7.518;2023-12-29T06:40:54;98634.00;;;12.70
10058;BMP180;5068;51.286;7.518;2023-12-29T06:42:27;98637.00;;;12.70
10058;BMP180;5068;51.286;7.518;2023-12-29T06:44:00;98642.00;;;12.80
10058;BMP180;5068;51.286;7.518;2023-12-29T06:45:33;98640.00;;;12.80
10058;BMP180;5068;51.286;7.518;2023-12-29T06:47:06;98636.00;;;12.80
10058;BMP180;5068;51.286;7.518;2023-12-29T06:48:38;98630.00;;;12.80
10058;BMP180;5068;51.286;7.518;2023-12-29T06:50:12;98636.00;;;12.80
10058;BMP180;5068;51.286;7.518;2023-12-29T06:51:47;98628.00;;;12.80
10058;BMP180;5068;51.286;7.518;2023-12-29T06:53:19;98622.00;;;12.80
10058;BMP180;5068;51.286;7.518;2023-12-29T06:54:53;98627.00;;;12.80
10058;BMP180;5068;51.286;7.518;2023-12-29T06:56:25;98628.00;;;12.80
10058;BMP180;5068;51.286;7.518;2023-12-29T06:57:59;98636.00;;;12.80
10058;BMP180;5068;51.286;7.518;2023-12-29T06:59:31;98636.00;;;12.80
10058;BMP180;5068;51.286;7.518;2023-12-29T07:01:05;98629.00;;;12.90
10058;BMP180;5068;51.286;7.518;2023-12-29T07:02:38;98624.00;;;12.90
10058;BMP180;5068;51.286;7.518;2023-12-29T07:04:12;98632.00;;;12.90
10058;BMP180;5068;51.286;7.518;2023-12-29T07:05:45;98644.00;;;12.90
10058;BMP180;5068;51.286;7.518;2023-12-29T07:07:20;98623.00;;;12.90
10058;BMP180;5068;51.286;7.518;2023-12-29T07:08:52;98634.00;;;12.90
10058;BMP180;5068;51.286;7.518;2023-12-29T07:10:26;98629.00;;;12.90
10058;BMP180;5068;51.286;7.518;2023-12-29T07:11:58;98617.00;;;12.90
10058;BMP180;5068;51.286;7.518;2023-12-29T07:13:32;98618.00;;;12.80
10058;BMP180;5068;51.286;7.518;2023-12-29T07:15:05;98626.00;;;12.90
10058;BMP180;5068;51.286;7.518;2023-12-29T07:16:39;98618.00;;;12.80
10058;BMP180;5068;51.286;7.518;2023-12-29T07:18:11;98619.00;;;12.80
10058;BMP180;5068;51.286;7.518;2023-12-29T07:19:44;98620.00;;;12.80
10058;BMP180;5068;51.286;7.518;2023-12-29T07:21:17;98609.00;;;12.80
10058;BMP180;5068;51.286;7.518;2023-12-29T07:22:52;98611.00;;;12.80
10058;BMP180;5068;51.286;7.518;2023-12-29T07:24:24;98602.00;;;12.80
10058;BMP180;5068;51.286;7.518;2023-12-29T07:25:58;98612.00;;;12.80
10058;BMP180;5068;51.286;7.518;2023-12-29T07:27:30;98614.00;;;12.80
10058;BMP180;5068;51.286;7.518;2023-12-29T07:29:03;98607.00;;;12.90
10058;BMP180;5068;51.286;7.518;2023-12-29T07:30:36;98622.00;;;12.80
10058;BMP180;5068;51.286;7.518;2023-12-29T07:32:09;98622.00;;;12.80
10058;BMP180;5068;51.286;7.518;2023-12-29T07:33:41;98619.00;;;12.90
10058;BMP180;5068;51.286;7.518;2023-12-29T07:35:16;98611.00;;;12.90
10058;BMP180;5068;51.286;7.518;2023-12-29T07:36:49;98617.00;;;12.90
10058;BMP180;5068;51.286;7.518;2023-12-29T07:38:24;98614.00;;;12.90
10058;BMP180;5068;51.286;7.518;2023-12-29T07:39:57;98610.00;;;12.90
10058;BMP180;5068;51.286;7.518;2023-12-29T07:41:30;98609.00;;;12.90
10058;BMP180;5068;51.286;7.518;2023-12-29T07:43:03;98614.00;;;12.90
10058;BMP180;5068;51.286;7.518;2023-12-29T07:44:36;98608.00;;;12.90
10058;BMP180;5068;51.286;7.518;2023-12-29T07:46:09;98612.00;;;12.90
10058;BMP180;5068;51.286;7.518;2023-12-29T07:47:42;98623.00;;;12.90
10058;BMP180;5068;51.286;7.518;2023-12-29T07:49:15;98609.00;;;12.90
10058;BMP180;5068;51.286;7.518;2023-12-29T07:50:48;98620.00;;;12.90
10058;BMP180;5068;51.286;7.518;2023-12-29T07:52:21;98609.00;;;12.90
10058;BMP180;5068;51.286;7.518;2023-12-29T07:53:56;98604.00;;;12.90
10058;BMP180;5068;51.286;7.518;2023-12-29T07:55:28;98606.00;;;12.90
10058;BMP180;5068;51.286;7.518;2023-12-29T07:57:02;98616.00;;;12.90
10058;BMP180;5068;51.286;7.518;2023-12-29T07:58:35;98613.00;;;12.90
10058;BMP180;5068;51.286;7.518;2023-12-29T08:00:12;98605.00;;;12.90
10058;BMP180;5068;51.286;7.518;2023-12-29T08:01:44;98608.00;;;12.90
10058;BMP180;5068;51.286;7.518;2023-12-29T08:03:17;98606.00;;;12.90
10058;BMP180;5068;51.286;7.518;2023-12-29T08:04:50;98612.00;;;12.90
10058;BMP180;5068;51.286;7.518;2023-12-29T08:06:23;98615.00;;;12.90
10058;BMP180;5068;51.286;7.518;2023-12-29T08:07:55;98607.00;;;12.90
10058;BMP180;5068;51.286;7.518;2023-12-29T08:09:31;98599.00;;;12.90
10058;BMP180;5068;51.286;7.518;2023-12-29T08:11:03;98609.00;;;12.90
10058;BMP180;5068;51.286;7.518;2023-12-29T08:12:36;98618.00;;;12.90
10058;BMP180;5068;51.286;7.518;2023-12-29T08:14:09;98617.00;;;12.90
10058;BMP180;5068;51.286;7.518;2023-12-29T08:15:43;98627.00;;;12.80
10058;BMP180;5068;51.286;7.518;2023-12-29T08:17:15;98636.00;;;12.80
10058;BMP180;5068;51.286;7.518;2023-12-29T08:18:50;98631.00;;;12.80
10058;BMP180;5068;51.286;7.518;2023-12-29T08:20:22;98629.00;;;12.80
10058;BMP180;5068;51.286;7.518;2023-12-29T08:21:56;98635.00;;;12.70
10058;BMP180;5068;51.286;7.518;2023-12-29T08:23:29;98628.00;;;12.70
10058;BMP180;5068;51.286;7.518;2023-12-29T08:25:05;98640.00;;;12.70
10058;BMP180;5068;51.286;7.518;2023-12-29T08:26:44;98640.00;;;12.70
10058;BMP180;5068;51.286;7.518;2023-12-29T08:28:18;98643.00;;;12.70
10058;BMP180;5068;51.286;7.518;2023-12-29T08:29:51;98656.00;;;12.70
10058;BMP180;5068;51.286;7.518;2023-12-29T08:31:25;98663.00;;;12.70
10058;BMP180;5068;51.286;7.518;2023-12-29T08:32:59;98650.00;;;12.70
10058;BMP180;5068;51.286;7.518;2023-12-29T08:34:32;98660.00;;;12.70
10058;BMP180;5068;51.286;7.518;2023-12-29T08:36:07;98657.00;;;12.70
10058;BMP180;5068;51.286;7.518;2023-12-29T08:37:40;98671.00;;;12.60
10058;BMP180;5068;51.286;7.518;2023-12-29T08:39:12;98660.00;;;12.70
10058;BMP180;5068;51.286;7.518;2023-12-29T08:40:48;98670.00;;;12.70
10058;BMP180;5068;51.286;7.518;2023-12-29T08:42:21;98656.00;;;12.70
10058;BMP180;5068;51.286;7.518;2023-12-29T08:43:55;98663.00;;;12.70
10058;BMP180;5068;51.286;7.518;2023-12-29T08:45:27;98668.00;;;12.60
10058;BMP180;5068;51.286;7.518;2023-12-29T08:47:00;98664.00;;;12.60
10058;BMP180;5068;51.286;7.518;2023-12-29T08:48:32;98653.00;;;12.60
10058;BMP180;5068;51.286;7.518;2023-12-29T08:50:10;98650.00;;;12.60
10058;BMP180;5068;51.286;7.518;2023-12-29T08:51:42;98648.00;;;12.60
10058;BMP180;5068;51.286;7.518;2023-12-29T08:53:16;98659.00;;;12.60
10058;BMP180;5068;51.286;7.518;2023-12-29T08:54:49;98650.00;;;12.60
10058;BMP180;5068;51.286;7.518;2023-12-29T08:56:24;98652.00;;;12.60
10058;BMP180;5068;51.286;7.518;2023-12-29T08:58:00;98670.00;;;12.60
10058;BMP180;5068;51.286;7.518;2023-12-29T08:59:35;98671.00;;;12.60
10058;BMP180;5068;51.286;7.518;2023-12-29T09:01:07;98670.00;;;12.60
10058;BMP180;5068;51.286;7.518;2023-12-29T09:02:41;98674.00;;;12.60
10058;BMP180;5068;51.286;7.518;2023-12-29T09:04:15;98672.00;;;12.60
10058;BMP180;5068;51.286;7.518;2023-12-29T09:05:48;98671.00;;;12.60
10058;BMP180;5068;51.286;7.518;2023-12-29T09:07:23;98665.00;;;12.50
10058;BMP180;5068;51.286;7.518;2023-12-29T09:08:55;98665.00;;;12.50